sensor_id;sensor_type;location;lat;lon;timestamp;pressure;altitude;pressure_sealevel;temperature;humidity
18137;BME280;9194;42.632;23.298;2022-10-17T00:04:35;93836.66;;;8.02;100.00
18137;BME280;9194;42.632;23.298;2022-10-17T00:09:36;93827.44;;;8.00;100.00
18137;BME280;9194;42.632;23.298;2022-10-17T00:14:37;93822.94;;;7.94;100.00
18137;BME280;9194;42.632;23.298;2022-10-17T00:19:39;93828.94;;;7.94;100.00
18137;BME280;9194;42.632;23.298;2022-10-17T00:24:40;93829.28;;;7.91;100.00
18137;BME280;9194;42.632;23.298;2022-10-17T00:29:41;93825.94;;;7.82;100.00
18137;BME280;9194;42.632;23.298;2022-10-17T00:34:43;93830.22;;;7.75;100.00
18137;BME280;9194;42.632;23.298;2022-10-17T00:39:44;93836.97;;;7.84;100.00
18137;BME280;9194;42.632;23.298;2022-10-17T00:49:47;93831.50;;;7.79;100.00
18137;BME280;9194;42.632;23.298;2022-10-17T00:54:53;93839.78;;;7.75;100.00
18137;BME280;9194;42.632;23.298;2022-10-17T00:59:58;93832.53;;;7.70;100.00
18137;BME280;9194;42.632;23.298;2022-10-17T01:04:59;93834.16;;;7.71;100.00
18137;BME280;9194;42.632;23.298;2022-10-17T01:10:01;93842.78;;;7.64;100.00
18137;BME280;9194;42.632;23.298;2022-10-17T01:26:04;93834.38;;;7.39;100.00
18137;BME280;9194;42.632;23.298;2022-10-17T01:31:13;93831.13;;;7.45;100.00
18137;BME280;9194;42.632;23.298;2022-10-17T01:36:26;93834.72;;;7.36;100.00
18137;BME280;9194;42.632;23.298;2022-10-17T01:42:13;93840.25;;;7.33;100.00
18137;BME280;9194;42.632;23.298;2022-10-17T01:47:21;93843.00;;;7.31;100.00
18137;BME280;9194;42.632;23.298;2022-10-17T01:52:34;93844.81;;;7.23;100.00
18137;BME280;9194;42.632;23.298;2022-10-17T01:57:39;93852.44;;;7.24;100.00
18137;BME280;9194;42.632;23.298;2022-10-17T02:02:43;93849.31;;;7.29;100.00
18137;BME280;9194;42.632;23.298;2022-10-17T02:07:46;93851.31;;;7.19;100.00
18137;BME280;9194;42.632;23.298;2022-10-17T02:12:53;93842.59;;;7.20;100.00
18137;BME280;9194;42.632;23.298;2022-10-17T02:18:25;93854.44;;;7.14;100.00
18137;BME280;9194;42.632;23.298;2022-10-17T02:29:04;93852.69;;;7.07;98.80
18137;BME280;9194;42.632;23.298;2022-10-17T02:34:19;93858.84;;;7.06;96.57
18137;BME280;9194;42.632;23.298;2022-10-17T02:39:26;93865.16;;;7.03;96.06
18137;BME280;9194;42.632;23.298;2022-10-17T02:44:31;93865.50;;;7.00;97.16
18137;BME280;9194;42.632;23.298;2022-10-17T02:49:38;93870.88;;;6.98;96.10
18137;BME280;9194;42.632;23.298;2022-10-17T02:54:51;93880.56;;;6.96;95.92
18137;BME280;9194;42.632;23.298;2022-10-17T02:59:57;93881.41;;;6.89;96.64
18137;BME280;9194;42.632;23.298;2022-10-17T03:04:59;93881.22;;;6.90;96.12
18137;BME280;9194;42.632;23.298;2022-10-17T03:10:00;93886.28;;;6.84;95.58
18137;BME280;9194;42.632;23.298;2022-10-17T03:15:04;93888.06;;;6.83;96.55
18137;BME280;9194;42.632;23.298;2022-10-17T03:20:06;93891.00;;;6.80;96.99
18137;BME280;9194;42.632;23.298;2022-10-17T03:25:08;93887.75;;;6.78;98.37
18137;BME280;9194;42.632;23.298;2022-10-17T03:30:10;93891.97;;;6.79;98.21
18137;BME280;9194;42.632;23.298;2022-10-17T03:35:13;93885.31;;;6.77;99.57
18137;BME280;9194;42.632;23.298;2022-10-17T03:40:14;93892.31;;;6.68;100.00
18137;BME280;9194;42.632;23.298;2022-10-17T03:45:16;93888.41;;;6.72;100.00
18137;BME280;9194;42.632;23.298;2022-10-17T03:50:19;93896.19;;;6.72;100.00
18137;BME280;9194;42.632;23.298;2022-10-17T03:55:21;93901.19;;;6.74;100.00
18137;BME280;9194;42.632;23.298;2022-10-17T04:00:23;93902.81;;;6.75;100.00
18137;BME280;9194;42.632;23.298;2022-10-17T04:05:30;93908.16;;;6.73;100.00
18137;BME280;9194;42.632;23.298;2022-10-17T04:10:31;93907.50;;;6.71;100.00
18137;BME280;9194;42.632;23.298;2022-10-17T04:15:32;93907.84;;;6.68;100.00
18137;BME280;9194;42.632;23.298;2022-10-17T04:20:34;93916.72;;;6.66;100.00
18137;BME280;9194;42.632;23.298;2022-10-17T04:25:36;93917.53;;;6.66;100.00
18137;BME280;9194;42.632;23.298;2022-10-17T04:30:38;93914.47;;;6.63;100.00
18137;BME280;9194;42.632;23.298;2022-10-17T04:35:40;93921.75;;;6.67;100.00
18137;BME280;9194;42.632;23.298;2022-10-17T04:40:42;93923.38;;;6.68;100.00
18137;BME280;9194;42.632;23.298;2022-10-17T04:45:44;93922.56;;;6.68;100.00
18137;BME280;9194;42.632;23.298;2022-10-17T04:50:56;93921.59;;;6.69;100.00
18137;BME280;9194;42.632;23.298;2022-10-17T04:56:10;93928.84;;;6.73;100.00
18137;BME280;9194;42.632;23.298;2022-10-17T05:01:16;93935.28;;;6.77;100.00
18137;BME280;9194;42.632;23.298;2022-10-17T05:06:24;93938.50;;;6.87;100.00
18137;BME280;9194;42.632;23.298;2022-10-17T05:11:46;93943.97;;;7.00;100.00
18137;BME280;9194;42.632;23.298;2022-10-17T05:16:47;93933.75;;;7.07;100.00
18137;BME280;9194;42.632;23.298;2022-10-17T05:21:49;93951.38;;;7.12;100.00
18137;BME280;9194;42.632;23.298;2022-10-17T05:26:50;93954.41;;;7.23;100.00
18137;BME280;9194;42.632;23.298;2022-10-17T05:31:52;93951.44;;;7.34;100.00
18137;BME280;9194;42.632;23.298;2022-10-17T05:36:56;93959.63;;;7.46;100.00
18137;BME280;9194;42.632;23.298;2022-10-17T05:41:59;93966.69;;;7.60;100.00
18137;BME280;9194;42.632;23.298;2022-10-17T05:47:01;93971.22;;;7.66;100.00
18137;BME280;9194;42.632;23.298;2022-10-17T05:52:02;93961.09;;;7.79;100.00
18137;BME280;9194;42.632;23.298;2022-10-17T05:57:09;93962.13;;;7.93;100.00
18137;BME280;9194;42.632;23.298;2022-10-17T06:02:12;93968.38;;;8.07;100.00
18137;BME280;9194;42.632;23.298;2022-10-17T06:07:14;93978.28;;;8.26;99.83
18137;BME280;9194;42.632;23.298;2022-10-17T06:12:18;93987.59;;;8.43;97.98
18137;BME280;9194;42.632;23.298;2022-10-17T06:17:20;93989.13;;;8.52;98.83
18137;BME280;9194;42.632;23.298;2022-10-17T06:22:21;93995.34;;;8.66;98.90
18137;BME280;9194;42.632;23.298;2022-10-17T06:27:23;93997.78;;;8.68;98.49
18137;BME280;9194;42.632;23.298;2022-10-17T06:32:24;94013.63;;;8.73;99.26
18137;BME280;9194;42.632;23.298;2022-10-17T06:37:30;94023.47;;;8.77;99.30
18137;BME280;9194;42.632;23.298;2022-10-17T06:42:32;94019.41;;;8.75;99.33
18137;BME280;9194;42.632;23.298;2022-10-17T06:47:42;94023.91;;;8.81;98.68
18137;BME280;9194;42.632;23.298;2022-10-17T06:52:58;94023.31;;;8.93;98.53
18137;BME280;9194;42.632;23.298;2022-10-17T06:58:21;94020.75;;;9.08;97.88
18137;BME280;9194;42.632;23.298;2022-10-17T07:03:41;94023.28;;;9.31;97.02
18137;BME280;9194;42.632;23.298;2022-10-17T07:08:44;94022.56;;;9.52;96.35
18137;BME280;9194;42.632;23.298;2022-10-17T07:13:48;94012.22;;;9.73;95.43
18137;BME280;9194;42.632;23.298;2022-10-17T07:18:50;94024.09;;;9.97;93.49
18137;BME280;9194;42.632;23.298;2022-10-17T07:23:52;94030.06;;;10.26;91.21
18137;BME280;9194;42.632;23.298;2022-10-17T07:28:55;94020.78;;;10.39;89.84
18137;BME280;9194;42.632;23.298;2022-10-17T07:34:06;94028.63;;;10.60;89.17
18137;BME280;9194;42.632;23.298;2022-10-17T07:39:08;94029.16;;;10.77;88.23
18137;BME280;9194;42.632;23.298;2022-10-17T07:44:11;94035.91;;;10.92;87.40
18137;BME280;9194;42.632;23.298;2022-10-17T07:49:19;94048.75;;;11.22;86.76
18137;BME280;9194;42.632;23.298;2022-10-17T07:54:21;94040.00;;;11.36;84.05
18137;BME280;9194;42.632;23.298;2022-10-17T07:59:23;94043.09;;;11.46;84.41
18137;BME280;9194;42.632;23.298;2022-10-17T08:04:25;94039.81;;;11.72;81.52
18137;BME280;9194;42.632;23.298;2022-10-17T08:09:26;94033.56;;;12.01;77.63
18137;BME280;9194;42.632;23.298;2022-10-17T08:14:27;94029.38;;;12.13;77.34
18137;BME280;9194;42.632;23.298;2022-10-17T08:19:47;94027.25;;;12.43;74.39
18137;BME280;9194;42.632;23.298;2022-10-17T08:24:49;94027.50;;;12.54;71.03
18137;BME280;9194;42.632;23.298;2022-10-17T08:29:50;94030.34;;;12.86;67.11
18137;BME280;9194;42.632;23.298;2022-10-17T08:34:54;94037.59;;;12.97;65.93
18137;BME280;9194;42.632;23.298;2022-10-17T08:39:55;94031.75;;;13.08;63.04
18137;BME280;9194;42.632;23.298;2022-10-17T08:45:17;94035.41;;;13.27;62.24
18137;BME280;9194;42.632;23.298;2022-10-17T08:50:37;94037.41;;;13.51;62.37
18137;BME280;9194;42.632;23.298;2022-10-17T08:55:44;94032.09;;;13.71;59.70
18137;BME280;9194;42.632;23.298;2022-10-17T09:01:11;94038.31;;;13.83;58.07
18137;BME280;9194;42.632;23.298;2022-10-17T09:07:07;94033.59;;;14.05;56.10
18137;BME280;9194;42.632;23.298;2022-10-17T09:11:51;94044.47;;;14.15;54.66
18137;BME280;9194;42.632;23.298;2022-10-17T09:22:23;94038.16;;;14.22;53.57
18137;BME280;9194;42.632;23.298;2022-10-17T09:27:27;94038.47;;;14.46;53.76
18137;BME280;9194;42.632;23.298;2022-10-17T09:32:32;94039.81;;;14.61;53.02
18137;BME280;9194;42.632;23.298;2022-10-17T09:37:33;94039.53;;;14.76;51.17
18137;BME280;9194;42.632;23.298;2022-10-17T09:42:35;94028.63;;;14.79;50.93
18137;BME280;9194;42.632;23.298;2022-10-17T09:47:48;94031.19;;;14.86;50.13
18137;BME280;9194;42.632;23.298;2022-10-17T09:52:54;94031.09;;;14.99;49.90
18137;BME280;9194;42.632;23.298;2022-10-17T09:57:58;94024.47;;;14.96;49.80
18137;BME280;9194;42.632;23.298;2022-10-17T10:03:21;94023.66;;;15.20;49.43
18137;BME280;9194;42.632;23.298;2022-10-17T10:08:26;94020.81;;;15.22;47.47
18137;BME280;9194;42.632;23.298;2022-10-17T10:13:28;94013.50;;;15.31;49.35
18137;BME280;9194;42.632;23.298;2022-10-17T10:18:34;94011.13;;;15.47;48.38
18137;BME280;9194;42.632;23.298;2022-10-17T10:23:38;94011.19;;;15.41;48.72
18137;BME280;9194;42.632;23.298;2022-10-17T10:28:40;94004.41;;;15.51;48.33
18137;BME280;9194;42.632;23.298;2022-10-17T10:33:42;93996.03;;;15.61;47.59
18137;BME280;9194;42.632;23.298;2022-10-17T10:38:54;93993.44;;;15.79;46.40
18137;BME280;9194;42.632;23.298;2022-10-17T10:43:56;93993.09;;;15.76;46.18
18137;BME280;9194;42.632;23.298;2022-10-17T10:49:00;93982.50;;;15.82;45.71
18137;BME280;9194;42.632;23.298;2022-10-17T10:54:20;93979.28;;;15.80;46.93
18137;BME280;9194;42.632;23.298;2022-10-17T10:59:57;93976.44;;;15.82;47.10
18137;BME280;9194;42.632;23.298;2022-10-17T11:05:17;93973.16;;;16.05;46.70
18137;BME280;9194;42.632;23.298;2022-10-17T11:10:27;93967.44;;;16.08;46.47
18137;BME280;9194;42.632;23.298;2022-10-17T11:15:48;93965.41;;;16.10;45.55
18137;BME280;9194;42.632;23.298;2022-10-17T11:21:04;93959.25;;;16.16;46.79
18137;BME280;9194;42.632;23.298;2022-10-17T11:26:19;93957.38;;;16.05;45.17
18137;BME280;9194;42.632;23.298;2022-10-17T11:31:31;93959.97;;;16.23;44.32
18137;BME280;9194;42.632;23.298;2022-10-17T11:36:37;93951.34;;;16.34;44.70
18137;BME280;9194;42.632;23.298;2022-10-17T11:41:50;93946.16;;;16.27;45.25
18137;BME280;9194;42.632;23.298;2022-10-17T11:57:45;93931.28;;;16.21;43.69
18137;BME280;9194;42.632;23.298;2022-10-17T12:08:27;93937.53;;;16.38;43.22
18137;BME280;9194;42.632;23.298;2022-10-17T12:18:32;93931.88;;;16.53;42.76
18137;BME280;9194;42.632;23.298;2022-10-17T12:23:34;93926.28;;;16.61;44.28
18137;BME280;9194;42.632;23.298;2022-10-17T12:33:47;93929.50;;;16.63;44.25
18137;BME280;9194;42.632;23.298;2022-10-17T12:43:53;93922.94;;;16.54;43.55
18137;BME280;9194;42.632;23.298;2022-10-17T12:48:59;93918.59;;;16.48;44.20
18137;BME280;9194;42.632;23.298;2022-10-17T12:54:09;93928.63;;;16.39;44.41
18137;BME280;9194;42.632;23.298;2022-10-17T12:59:23;93924.28;;;16.45;44.65
18137;BME280;9194;42.632;23.298;2022-10-17T13:04:25;93919.13;;;16.38;43.96
18137;BME280;9194;42.632;23.298;2022-10-17T13:09:35;93926.53;;;16.30;43.96
18137;BME280;9194;42.632;23.298;2022-10-17T13:14:40;93924.25;;;16.33;45.13
18137;BME280;9194;42.632;23.298;2022-10-17T13:19:44;93924.44;;;16.20;44.90
18137;BME280;9194;42.632;23.298;2022-10-17T13:24:46;93922.63;;;16.21;44.72
18137;BME280;9194;42.632;23.298;2022-10-17T13:29:47;93920.88;;;16.15;45.14
18137;BME280;9194;42.632;23.298;2022-10-17T13:35:08;93925.81;;;16.23;45.71
18137;BME280;9194;42.632;23.298;2022-10-17T13:40:26;93923.63;;;16.20;48.67
18137;BME280;9194;42.632;23.298;2022-10-17T13:45:33;93934.66;;;15.26;52.98
18137;BME280;9194;42.632;23.298;2022-10-17T13:50:39;93930.53;;;14.87;53.91
18137;BME280;9194;42.632;23.298;2022-10-17T13:56:03;93934.59;;;14.26;57.59
18137;BME280;9194;42.632;23.298;2022-10-17T14:01:06;93942.25;;;13.90;60.19
18137;BME280;9194;42.632;23.298;2022-10-17T14:06:15;93948.38;;;13.71;61.76
18137;BME280;9194;42.632;23.298;2022-10-17T14:11:23;93941.63;;;13.43;63.49
18137;BME280;9194;42.632;23.298;2022-10-17T14:16:26;93952.56;;;13.14;64.35
18137;BME280;9194;42.632;23.298;2022-10-17T14:21:34;93960.19;;;12.89;65.57
18137;BME280;9194;42.632;23.298;2022-10-17T14:26:46;93950.94;;;12.73;66.62
18137;BME280;9194;42.632;23.298;2022-10-17T14:31:47;93950.94;;;12.73;66.54
18137;BME280;9194;42.632;23.298;2022-10-17T14:36:51;93950.94;;;12.54;68.26
18137;BME280;9194;42.632;23.298;2022-10-17T14:41:53;93955.38;;;12.40;68.34
18137;BME280;9194;42.632;23.298;2022-10-17T14:47:02;93957.97;;;12.40;68.78
18137;BME280;9194;42.632;23.298;2022-10-17T14:52:20;93968.81;;;12.44;69.56
18137;BME280;9194;42.632;23.298;2022-10-17T14:57:25;93973.41;;;12.35;69.61
18137;BME280;9194;42.632;23.298;2022-10-17T15:02:28;93972.19;;;12.24;69.78
18137;BME280;9194;42.632;23.298;2022-10-17T15:07:29;93975.75;;;12.04;69.70
18137;BME280;9194;42.632;23.298;2022-10-17T15:12:31;93978.31;;;11.90;70.07
18137;BME280;9194;42.632;23.298;2022-10-17T15:17:33;93977.31;;;11.85;70.07
18137;BME280;9194;42.632;23.298;2022-10-17T15:22:34;93982.94;;;11.88;70.61
18137;BME280;9194;42.632;23.298;2022-10-17T15:27:36;93984.72;;;11.81;70.90
18137;BME280;9194;42.632;23.298;2022-10-17T15:32:37;93986.81;;;11.58;72.76
18137;BME280;9194;42.632;23.298;2022-10-17T15:37:39;93998.53;;;11.41;74.80
18137;BME280;9194;42.632;23.298;2022-10-17T15:42:40;93991.31;;;11.43;75.82
18137;BME280;9194;42.632;23.298;2022-10-17T15:47:43;93995.66;;;11.29;77.59
18137;BME280;9194;42.632;23.298;2022-10-17T15:52:49;93994.09;;;11.07;78.93
18137;BME280;9194;42.632;23.298;2022-10-17T15:57:53;93994.16;;;11.13;79.17
18137;BME280;9194;42.632;23.298;2022-10-17T16:02:54;94005.72;;;11.04;78.60
18137;BME280;9194;42.632;23.298;2022-10-17T16:07:55;94015.75;;;10.80;81.13
18137;BME280;9194;42.632;23.298;2022-10-17T16:12:57;94016.78;;;10.85;80.70
18137;BME280;9194;42.632;23.298;2022-10-17T16:17:59;94031.75;;;10.77;81.67
18137;BME280;9194;42.632;23.298;2022-10-17T16:23:00;94028.91;;;10.72;81.77
18137;BME280;9194;42.632;23.298;2022-10-17T16:28:03;94034.31;;;10.70;82.92
18137;BME280;9194;42.632;23.298;2022-10-17T16:33:06;94039.63;;;10.62;83.18
18137;BME280;9194;42.632;23.298;2022-10-17T16:38:07;94034.69;;;10.46;84.35
18137;BME280;9194;42.632;23.298;2022-10-17T16:43:12;94043.47;;;10.45;84.27
18137;BME280;9194;42.632;23.298;2022-10-17T16:48:13;94047.06;;;10.44;84.26
18137;BME280;9194;42.632;23.298;2022-10-17T16:53:15;94041.59;;;10.39;84.64
18137;BME280;9194;42.632;23.298;2022-10-17T16:58:16;94058.03;;;10.39;85.34
18137;BME280;9194;42.632;23.298;2022-10-17T17:03:17;94064.28;;;10.23;86.18
18137;BME280;9194;42.632;23.298;2022-10-17T17:08:18;94064.03;;;10.18;85.43
18137;BME280;9194;42.632;23.298;2022-10-17T17:13:20;94072.97;;;10.16;85.26
18137;BME280;9194;42.632;23.298;2022-10-17T17:18:21;94072.16;;;10.15;83.78
18137;BME280;9194;42.632;23.298;2022-10-17T17:23:22;94072.53;;;10.12;82.99
18137;BME280;9194;42.632;23.298;2022-10-17T17:28:24;94077.81;;;10.04;82.71
18137;BME280;9194;42.632;23.298;2022-10-17T17:33:26;94082.84;;;10.06;81.78
18137;BME280;9194;42.632;23.298;2022-10-17T17:38:31;94088.78;;;10.00;81.49
18137;BME280;9194;42.632;23.298;2022-10-17T17:43:34;94086.72;;;9.95;81.24
18137;BME280;9194;42.632;23.298;2022-10-17T17:48:39;94097.84;;;9.89;82.55
18137;BME280;9194;42.632;23.298;2022-10-17T17:53:40;94096.06;;;9.75;81.18
18137;BME280;9194;42.632;23.298;2022-10-17T17:58:43;94093.00;;;9.86;80.97
18137;BME280;9194;42.632;23.298;2022-10-17T18:03:46;94097.28;;;9.79;81.58
18137;BME280;9194;42.632;23.298;2022-10-17T18:08:51;94099.63;;;9.74;81.88
18137;BME280;9194;42.632;23.298;2022-10-17T18:14:06;94100.63;;;9.87;80.64
18137;BME280;9194;42.632;23.298;2022-10-17T18:19:09;94106.97;;;9.85;80.89
18137;BME280;9194;42.632;23.298;2022-10-17T18:24:11;94100.00;;;9.85;79.80
18137;BME280;9194;42.632;23.298;2022-10-17T18:29:12;94095.34;;;9.81;80.03
18137;BME280;9194;42.632;23.298;2022-10-17T18:34:13;94101.16;;;9.68;79.52
18137;BME280;9194;42.632;23.298;2022-10-17T18:39:15;94099.53;;;9.67;79.90
18137;BME280;9194;42.632;23.298;2022-10-17T18:44:16;94105.91;;;9.65;79.62
18137;BME280;9194;42.632;23.298;2022-10-17T18:49:18;94105.38;;;9.55;80.31
18137;BME280;9194;42.632;23.298;2022-10-17T18:54:20;94103.50;;;9.48;79.67
18137;BME280;9194;42.632;23.298;2022-10-17T18:59:22;94112.63;;;9.44;79.68
18137;BME280;9194;42.632;23.298;2022-10-17T19:04:23;94114.22;;;9.45;79.30
18137;BME280;9194;42.632;23.298;2022-10-17T19:09:24;94112.25;;;9.33;79.65
18137;BME280;9194;42.632;23.298;2022-10-17T19:14:26;94113.75;;;9.27;79.93
18137;BME280;9194;42.632;23.298;2022-10-17T19:19:28;94116.88;;;9.23;79.64
18137;BME280;9194;42.632;23.298;2022-10-17T19:24:30;94120.78;;;9.04;80.67
18137;BME280;9194;42.632;23.298;2022-10-17T19:29:31;94120.50;;;8.99;79.63
18137;BME280;9194;42.632;23.298;2022-10-17T19:34:33;94116.00;;;8.93;80.91
18137;BME280;9194;42.632;23.298;2022-10-17T19:39:35;94114.22;;;8.93;78.45
18137;BME280;9194;42.632;23.298;2022-10-17T19:44:36;94118.31;;;8.88;77.23
18137;BME280;9194;42.632;23.298;2022-10-17T19:49:38;94117.63;;;8.94;77.19
18137;BME280;9194;42.632;23.298;2022-10-17T19:54:39;94122.00;;;8.93;77.84
18137;BME280;9194;42.632;23.298;2022-10-17T19:59:43;94124.31;;;8.88;78.16
18137;BME280;9194;42.632;23.298;2022-10-17T20:04:44;94139.78;;;8.82;75.88
18137;BME280;9194;42.632;23.298;2022-10-17T20:09:46;94136.06;;;8.99;74.84
18137;BME280;9194;42.632;23.298;2022-10-17T20:14:47;94128.81;;;8.94;76.40
18137;BME280;9194;42.632;23.298;2022-10-17T20:19:48;94132.09;;;8.88;77.83
18137;BME280;9194;42.632;23.298;2022-10-17T20:24:50;94131.66;;;8.85;76.84
18137;BME280;9194;42.632;23.298;2022-10-17T20:29:51;94125.13;;;8.89;76.40
18137;BME280;9194;42.632;23.298;2022-10-17T20:34:52;94119.00;;;8.82;78.08
18137;BME280;9194;42.632;23.298;2022-10-17T20:39:54;94111.84;;;8.84;78.48
18137;BME280;9194;42.632;23.298;2022-10-17T20:44:56;94107.56;;;8.68;78.73
18137;BME280;9194;42.632;23.298;2022-10-17T20:49:57;94106.66;;;8.61;78.78
18137;BME280;9194;42.632;23.298;2022-10-17T20:54:58;94104.81;;;8.70;80.04
18137;BME280;9194;42.632;23.298;2022-10-17T20:59:59;94111.63;;;8.71;79.70
18137;BME280;9194;42.632;23.298;2022-10-17T21:05:01;94111.16;;;8.67;80.67
18137;BME280;9194;42.632;23.298;2022-10-17T21:10:03;94100.25;;;8.72;82.27
18137;BME280;9194;42.632;23.298;2022-10-17T21:15:05;94099.69;;;8.61;83.79
18137;BME280;9194;42.632;23.298;2022-10-17T21:20:07;94102.69;;;8.73;85.39
18137;BME280;9194;42.632;23.298;2022-10-17T21:25:09;94101.97;;;8.56;84.88
18137;BME280;9194;42.632;23.298;2022-10-17T21:30:10;94096.09;;;8.62;84.49
18137;BME280;9194;42.632;23.298;2022-10-17T21:35:11;94096.41;;;8.68;84.66
18137;BME280;9194;42.632;23.298;2022-10-17T21:40:13;94101.34;;;8.77;83.17
18137;BME280;9194;42.632;23.298;2022-10-17T21:45:14;94101.81;;;8.81;83.73
18137;BME280;9194;42.632;23.298;2022-10-17T21:50:15;94093.84;;;8.82;83.50
18137;BME280;9194;42.632;23.298;2022-10-17T21:55:17;94099.56;;;8.78;83.36
18137;BME280;9194;42.632;23.298;2022-10-17T22:00:18;94092.75;;;8.77;83.80
18137;BME280;9194;42.632;23.298;2022-10-17T22:05:19;94096.84;;;8.71;85.57
18137;BME280;9194;42.632;23.298;2022-10-17T22:10:20;94096.84;;;8.71;85.87
18137;BME280;9194;42.632;23.298;2022-10-17T22:15:22;94085.09;;;8.60;86.01
18137;BME280;9194;42.632;23.298;2022-10-17T22:20:23;94089.31;;;8.61;85.68
18137;BME280;9194;42.632;23.298;2022-10-17T22:25:24;94097.44;;;8.58;86.01
18137;BME280;9194;42.632;23.298;2022-10-17T22:30:25;94089.81;;;8.57;86.34
18137;BME280;9194;42.632;23.298;2022-10-17T22:35:27;94088.53;;;8.53;86.48
18137;BME280;9194;42.632;23.298;2022-10-17T22:40:28;94081.81;;;8.44;88.15
18137;BME280;9194;42.632;23.298;2022-10-17T22:45:29;94093.69;;;8.38;88.84
18137;BME280;9194;42.632;23.298;2022-10-17T22:50:31;94093.72;;;8.30;89.00
18137;BME280;9194;42.632;23.298;2022-10-17T22:55:32;94087.25;;;8.18;90.90
18137;BME280;9194;42.632;23.298;2022-10-17T23:00:33;94075.00;;;8.04;90.95
18137;BME280;9194;42.632;23.298;2022-10-17T23:05:34;94081.34;;;8.01;91.39
18137;BME280;9194;42.632;23.298;2022-10-17T23:10:36;94078.31;;;7.98;91.58
18137;BME280;9194;42.632;23.298;2022-10-17T23:33:21;94077.97;;;7.93;91.47
18137;BME280;9194;42.632;23.298;2022-10-17T23:38:22;94060.47;;;7.95;90.44
18137;BME280;9194;42.632;23.298;2022-10-17T23:43:23;94069.41;;;7.92;90.33
18137;BME280;9194;42.632;23.298;2022-10-17T23:48:26;94067.66;;;7.84;92.15
18137;BME280;9194;42.632;23.298;2022-10-17T23:53:28;94055.69;;;7.83;91.04
18137;BME280;9194;42.632;23.298;2022-10-17T23:58:29;94048.06;;;7.82;91.30
